Time;durP1;ratioP1;P1;durP2;ratioP2;P2;SDS_P1;SDS_P2;PMS_P1;PMS_P2;Temp;Humidity;BMP_temperature;BMP_pressure;BME280_temperature;BME280_humidity;BME280_pressure;Samples;Min_cycle;Max_cycle;Signal;HPM_P1;HPM_P2
2022/07/18 00:01:47;;;;;;;5.32;4.00;;;15.20;99.90;;;;;;5075580;28;20052;-73
2022/07/18 00:04:12;;;;;;;6.53;3.58;;;15.30;99.90;;;;;;5077390;28;20055;-73
2022/07/18 00:06:38;;;;;;;7.10;3.83;;;15.30;99.90;;;;;;5077251;28;20037;-74
2022/07/18 00:09:04;;;;;;;5.20;3.30;;;15.30;99.90;;;;;;5077339;28;20123;-74
2022/07/18 00:11:30;;;;;;;6.47;3.50;;;15.30;99.90;;;;;;5077240;28;20043;-73
2022/07/18 00:13:56;;;;;;;4.55;3.20;;;15.20;99.90;;;;;;5077247;28;20087;-74
2022/07/18 00:16:22;;;;;;;5.07;3.38;;;15.30;99.90;;;;;;5077868;28;20080;-74
2022/07/18 00:18:49;;;;;;;4.22;2.97;;;15.20;99.90;;;;;;5077436;28;20127;-73
2022/07/18 00:21:16;;;;;;;5.05;3.00;;;15.10;99.90;;;;;;5076723;28;20481;-73
2022/07/18 00:23:42;;;;;;;5.32;3.25;;;15.20;99.90;;;;;;5077184;28;20476;-73
2022/07/18 00:26:07;;;;;;;5.22;3.17;;;15.20;99.90;;;;;;5076949;28;20040;-73
2022/07/18 00:28:33;;;;;;;5.53;3.22;;;15.30;99.90;;;;;;5076850;28;20159;-73
2022/07/18 00:30:59;;;;;;;5.05;3.40;;;15.40;99.90;;;;;;5077575;28;20089;-73
2022/07/18 00:33:24;;;;;;;5.75;3.45;;;15.50;99.90;;;;;;5076776;28;20136;-73
2022/07/18 00:35:50;;;;;;;5.85;3.95;;;15.70;99.90;;;;;;5075953;28;20047;-73
2022/07/18 00:38:16;;;;;;;5.82;3.42;;;15.80;99.90;;;;;;5076589;28;20036;-73
2022/07/18 00:40:42;;;;;;;6.03;3.58;;;15.90;99.90;;;;;;5076927;28;20040;-74
2022/07/18 00:43:08;;;;;;;5.60;3.75;;;16.00;99.90;;;;;;5092515;28;20048;-73
2022/07/18 00:45:33;;;;;;;5.38;3.33;;;16.10;99.90;;;;;;5075553;28;20040;-73
2022/07/18 00:48:05;;;;;;;5.13;3.60;;;16.20;99.90;;;;;;5076496;28;20514;-74
2022/07/18 00:50:31;;;;;;;7.50;4.07;;;16.20;99.90;;;;;;5076018;28;20128;-73
2022/07/18 00:52:56;;;;;;;5.53;4.03;;;16.20;99.90;;;;;;5075417;28;20203;-73
2022/07/18 00:55:22;;;;;;;5.88;3.72;;;16.10;99.90;;;;;;5076313;28;20040;-73
2022/07/18 00:57:48;;;;;;;6.72;3.90;;;16.10;99.90;;;;;;5076345;28;20115;-74
2022/07/18 01:02:59;;;;;;;5.63;3.85;;;16.00;99.90;;;;;;5076325;28;20049;-73
2022/07/18 01:05:25;;;;;;;5.28;3.65;;;16.00;99.90;;;;;;5075430;28;20357;-73
2022/07/18 01:07:51;;;;;;;6.15;3.42;;;15.90;99.90;;;;;;5074905;28;20036;-74
2022/07/18 01:10:18;;;;;;;6.22;3.80;;;15.90;99.90;;;;;;5075792;28;20119;-73
2022/07/18 01:12:44;;;;;;;6.88;3.80;;;15.80;99.90;;;;;;5075319;28;20070;-73
2022/07/18 01:15:11;;;;;;;5.88;3.53;;;15.80;99.90;;;;;;5075629;28;20045;-74
2022/07/18 01:17:37;;;;;;;6.13;4.22;;;15.70;99.90;;;;;;5076132;28;20094;-73
2022/07/18 01:20:05;;;;;;;5.43;3.95;;;15.70;99.90;;;;;;5075610;28;20449;-73
2022/07/18 01:22:32;;;;;;;7.45;3.95;;;15.70;99.90;;;;;;5076112;28;20461;-73
2022/07/18 01:24:58;;;;;;;7.10;3.92;;;15.60;99.90;;;;;;5074539;28;20527;-73
2022/07/18 01:27:24;;;;;;;5.35;4.07;;;15.60;99.90;;;;;;5075717;28;20127;-73
2022/07/18 01:29:52;;;;;;;6.10;3.92;;;15.50;99.90;;;;;;5074741;28;20463;-73
2022/07/18 01:32:19;;;;;;;6.65;3.58;;;15.50;99.90;;;;;;5075566;28;20469;-72
2022/07/18 01:34:46;;;;;;;5.68;4.07;;;15.40;99.90;;;;;;5076145;28;20062;-73
2022/07/18 01:37:12;;;;;;;6.03;3.83;;;15.40;99.90;;;;;;5075416;28;20090;-72
2022/07/18 01:39:38;;;;;;;5.63;3.53;;;15.30;99.90;;;;;;5075547;28;20091;-72
2022/07/18 01:42:07;;;;;;;6.63;3.92;;;15.30;99.90;;;;;;5075736;28;20044;-73
2022/07/18 01:44:35;;;;;;;5.93;4.07;;;15.20;99.90;;;;;;5075433;28;20040;-73
2022/07/18 01:47:02;;;;;;;6.68;4.53;;;15.20;99.90;;;;;;5075628;28;20174;-73
2022/07/18 01:49:29;;;;;;;6.85;3.83;;;15.10;99.90;;;;;;5075329;28;20123;-73
2022/07/18 01:51:56;;;;;;;5.97;4.10;;;15.10;99.90;;;;;;5074130;28;20119;-73
2022/07/18 01:54:23;;;;;;;6.18;3.83;;;15.10;99.90;;;;;;5074983;28;20526;-73
2022/07/18 01:56:49;;;;;;;5.05;3.70;;;15.10;99.90;;;;;;5075166;28;20457;-72
2022/07/18 01:59:16;;;;;;;6.63;3.97;;;15.10;99.90;;;;;;5075491;28;20036;-73
2022/07/18 02:01:41;;;;;;;4.10;3.08;;;15.20;99.90;;;;;;5073905;28;20040;-73
2022/07/18 02:04:07;;;;;;;5.18;3.70;;;15.10;99.90;;;;;;5074120;28;20158;-73
2022/07/18 02:06:33;;;;;;;5.80;3.80;;;15.10;99.90;;;;;;5075044;28;20044;-73
2022/07/18 02:08:58;;;;;;;6.45;3.97;;;15.10;99.90;;;;;;5075573;28;20044;-73
2022/07/18 02:11:24;;;;;;;6.35;3.85;;;15.00;99.90;;;;;;5073730;28;20086;-73
2022/07/18 02:13:50;;;;;;;7.78;3.47;;;15.00;99.90;;;;;;5057241;28;20033;-73
2022/07/18 02:16:16;;;;;;;6.18;3.75;;;14.90;99.90;;;;;;5073850;28;20040;-73
2022/07/18 02:18:42;;;;;;;5.95;3.80;;;14.90;99.90;;;;;;5073467;28;20040;-72
2022/07/18 02:21:07;;;;;;;6.30;3.97;;;14.80;99.90;;;;;;5073579;28;20036;-73
2022/07/18 02:23:34;;;;;;;5.93;4.03;;;14.80;99.90;;;;;;5074186;28;20047;-73
2022/07/18 02:26:00;;;;;;;5.75;3.90;;;14.80;99.90;;;;;;5074626;28;20416;-73
2022/07/18 02:28:25;;;;;;;5.80;3.95;;;14.80;99.90;;;;;;5075136;28;20043;-73
2022/07/18 02:30:51;;;;;;;6.18;3.83;;;14.90;99.90;;;;;;5074662;28;20408;-73
2022/07/18 02:33:17;;;;;;;6.05;4.22;;;14.80;99.90;;;;;;5074458;28;20045;-73
2022/07/18 02:35:44;;;;;;;6.55;4.18;;;14.80;99.90;;;;;;5073198;28;20097;-74
2022/07/18 02:38:10;;;;;;;7.22;4.38;;;14.80;99.90;;;;;;5074353;28;20051;-73
2022/07/18 02:40:35;;;;;;;6.97;4.07;;;14.80;99.90;;;;;;5074351;28;20084;-73
2022/07/18 02:43:02;;;;;;;6.07;4.00;;;14.80;99.90;;;;;;5075401;28;20079;-73
2022/07/18 02:45:28;;;;;;;5.03;3.50;;;14.70;99.90;;;;;;5074687;28;20096;-73
2022/07/18 02:47:54;;;;;;;4.78;3.33;;;14.60;99.90;;;;;;5074232;28;20041;-73
2022/07/18 02:50:20;;;;;;;5.53;3.45;;;14.60;99.90;;;;;;5073232;28;20040;-73
2022/07/18 02:52:46;;;;;;;6.00;3.50;;;14.50;99.90;;;;;;5074761;28;20032;-73
2022/07/18 02:55:13;;;;;;;5.43;3.47;;;14.30;99.90;;;;;;5074755;28;20123;-73
2022/07/18 02:57:40;;;;;;;5.38;3.38;;;14.20;99.90;;;;;;5073937;28;20037;-73
2022/07/18 03:00:08;;;;;;;7.20;4.00;;;14.10;99.90;;;;;;5072996;28;20053;-73
2022/07/18 03:02:34;;;;;;;5.55;3.75;;;14.10;99.90;;;;;;5074298;28;20389;-73
2022/07/18 03:05:00;;;;;;;5.53;3.67;;;14.00;99.90;;;;;;5073865;28;20045;-73
2022/07/18 03:07:26;;;;;;;5.28;3.95;;;13.90;99.90;;;;;;5074367;28;20424;-73
2022/07/18 03:09:52;;;;;;;5.45;3.42;;;13.90;99.90;;;;;;5074381;28;20044;-73
2022/07/18 03:12:18;;;;;;;6.28;3.50;;;13.80;99.90;;;;;;5074257;28;20044;-73
2022/07/18 03:14:43;;;;;;;4.28;2.90;;;13.80;99.90;;;;;;5073736;28;20381;-73
2022/07/18 03:17:09;;;;;;;4.65;3.25;;;13.70;99.90;;;;;;5073523;28;20039;-73
2022/07/18 03:19:35;;;;;;;5.47;3.45;;;13.70;99.90;;;;;;5072662;28;20052;-73
2022/07/18 03:22:02;;;;;;;5.32;3.30;;;13.70;99.90;;;;;;5072607;28;20040;-73
2022/07/18 03:24:28;;;;;;;5.10;3.17;;;13.70;99.90;;;;;;5072747;28;20125;-73
2022/07/18 03:26:54;;;;;;;4.75;3.25;;;13.70;99.90;;;;;;5073627;28;20032;-73
2022/07/18 03:29:19;;;;;;;4.43;3.05;;;13.70;99.90;;;;;;5074037;28;20388;-73
2022/07/18 03:31:45;;;;;;;6.25;3.78;;;13.70;99.90;;;;;;5074138;28;20044;-73
2022/07/18 03:34:11;;;;;;;6.00;4.13;;;13.80;99.90;;;;;;5073366;28;20052;-73
2022/07/18 03:36:37;;;;;;;7.32;4.30;;;13.80;99.90;;;;;;5071727;28;20044;-73
2022/07/18 03:39:04;;;;;;;7.00;3.92;;;13.90;99.90;;;;;;5073013;28;20087;-73
2022/07/18 03:41:30;;;;;;;6.18;4.20;;;14.00;99.90;;;;;;5073361;28;20094;-73
2022/07/18 03:43:55;;;;;;;5.45;3.97;;;14.10;99.90;;;;;;5073914;28;20044;-73
2022/07/18 03:46:21;;;;;;;6.97;3.90;;;14.10;99.90;;;;;;5073105;28;20131;-73
2022/07/18 03:48:47;;;;;;;6.53;4.47;;;14.10;99.90;;;;;;5072966;28;20040;-73
2022/07/18 03:51:13;;;;;;;6.00;3.83;;;14.20;99.90;;;;;;5072000;28;20079;-73
2022/07/18 03:53:39;;;;;;;4.65;3.70;;;14.20;99.90;;;;;;5055499;28;20047;-74
2022/07/18 03:56:04;;;;;;;5.43;3.60;;;14.20;99.90;;;;;;5073840;28;20044;-73
2022/07/18 03:58:30;;;;;;;5.30;3.95;;;14.20;99.90;;;;;;5071997;28;20032;-73
2022/07/18 04:00:56;;;;;;;5.30;3.60;;;14.20;99.90;;;;;;5073023;28;20094;-73
2022/07/18 04:03:22;;;;;;;5.47;3.85;;;14.20;99.90;;;;;;5073238;28;20392;-72
2022/07/18 04:05:48;;;;;;;6.70;4.53;;;14.20;99.90;;;;;;5073664;28;20108;-73
2022/07/18 04:08:14;;;;;;;6.60;4.32;;;14.20;99.90;;;;;;5073126;28;20040;-73
2022/07/18 04:10:40;;;;;;;7.22;3.95;;;14.20;99.90;;;;;;5073129;28;20466;-73
2022/07/18 04:13:07;;;;;;;6.80;4.13;;;14.20;99.90;;;;;;5073105;28;20094;-73
2022/07/18 04:15:33;;;;;;;6.53;3.90;;;14.20;99.90;;;;;;5072400;28;20118;-73
2022/07/18 04:17:59;;;;;;;5.93;3.88;;;14.30;99.90;;;;;;5072664;28;20542;-73
2022/07/18 04:20:25;;;;;;;6.13;3.67;;;14.30;99.90;;;;;;5073495;28;20137;-73
2022/07/18 04:22:58;;;;;;;5.10;3.40;;;14.30;99.90;;;;;;5072228;28;20063;-73
2022/07/18 04:25:27;;;;;;;5.93;3.75;;;14.30;99.90;;;;;;5072959;28;20041;-73
2022/07/18 04:27:53;;;;;;;6.22;3.85;;;14.30;99.90;;;;;;5072842;28;20115;-73
2022/07/18 04:30:21;;;;;;;7.80;4.10;;;14.30;99.90;;;;;;5072804;28;20044;-73
2022/07/18 04:32:48;;;;;;;7.00;4.10;;;14.30;99.90;;;;;;5072818;28;20044;-73
2022/07/18 04:35:14;;;;;;;7.65;3.70;;;14.30;99.90;;;;;;5072822;28;20036;-73
2022/07/18 04:37:40;;;;;;;5.97;3.75;;;14.30;99.90;;;;;;5073141;28;20127;-73
2022/07/18 04:40:08;;;;;;;8.32;4.05;;;14.40;99.90;;;;;;5072583;28;20084;-73
2022/07/18 04:42:34;;;;;;;5.97;4.00;;;14.40;99.90;;;;;;5072394;28;20479;-72
2022/07/18 04:44:59;;;;;;;5.32;3.67;;;14.40;99.90;;;;;;5072693;28;20091;-73
2022/07/18 04:47:27;;;;;;;5.68;3.50;;;14.40;99.90;;;;;;5072751;28;20043;-72
2022/07/18 04:49:53;;;;;;;6.35;3.83;;;14.50;99.90;;;;;;5076195;28;20040;-72
2022/07/18 04:52:19;;;;;;;7.15;4.00;;;14.50;99.90;;;;;;5075213;28;20480;-73
2022/07/18 04:54:45;;;;;;;5.53;3.80;;;14.60;99.90;;;;;;5076776;28;20090;-73
2022/07/18 04:57:11;;;;;;;5.72;3.88;;;14.60;99.90;;;;;;5076326;28;20119;-73
2022/07/18 04:59:44;;;;;;;5.55;3.58;;;14.70;99.90;;;;;;5076802;28;20048;-72
2022/07/18 05:02:10;;;;;;;6.05;4.00;;;14.80;99.90;;;;;;5076787;28;20063;-72
2022/07/18 05:04:37;;;;;;;5.25;3.67;;;14.90;99.90;;;;;;5076258;28;20072;-73
2022/07/18 05:07:03;;;;;;;5.43;3.58;;;14.90;99.90;;;;;;5076436;28;20120;-73
2022/07/18 05:09:29;;;;;;;5.82;3.50;;;15.00;99.90;;;;;;5076070;28;20074;-73
2022/07/18 05:11:55;;;;;;;5.95;3.67;;;15.00;99.90;;;;;;5075725;28;20041;-73
2022/07/18 05:14:20;;;;;;;6.05;3.45;;;15.10;99.90;;;;;;5076494;28;20041;-73
2022/07/18 05:16:47;;;;;;;4.90;3.22;;;15.20;99.90;;;;;;5075903;28;20122;-73
2022/07/18 05:19:15;;;;;;;5.15;3.28;;;15.20;99.90;;;;;;5074751;28;20045;-73
2022/07/18 05:21:41;;;;;;;6.60;3.88;;;15.40;99.90;;;;;;5075873;28;20473;-73
2022/07/18 05:24:07;;;;;;;4.30;2.95;;;15.40;99.90;;;;;;5074829;28;20044;-73
2022/07/18 05:26:33;;;;;;;7.95;3.72;;;15.50;99.90;;;;;;5091421;28;20043;-73
2022/07/18 05:28:59;;;;;;;5.10;3.22;;;15.70;99.90;;;;;;5076497;28;20044;-73
2022/07/18 05:31:24;;;;;;;5.45;3.30;;;15.70;99.90;;;;;;5075734;28;20050;-73
2022/07/18 05:33:50;;;;;;;3.80;2.50;;;15.80;99.90;;;;;;5074582;28;20040;-73
2022/07/18 05:36:16;;;;;;;4.25;2.35;;;15.80;99.90;;;;;;5075741;28;20044;-73
2022/07/18 05:38:42;;;;;;;4.55;2.55;;;15.90;99.90;;;;;;5076021;28;20058;-73
2022/07/18 05:41:07;;;;;;;3.53;2.35;;;16.00;99.90;;;;;;5075866;28;20040;-73
2022/07/18 05:43:33;;;;;;;4.15;2.17;;;16.10;99.90;;;;;;5075507;28;20048;-73
2022/07/18 05:45:59;;;;;;;3.45;1.85;;;16.20;99.90;;;;;;5076307;28;20136;-73
2022/07/18 05:48:24;;;;;;;5.65;1.88;;;16.30;99.90;;;;;;5075941;28;20049;-73
2022/07/18 05:50:50;;;;;;;3.58;2.00;;;16.40;99.90;;;;;;5074390;28;20068;-73
2022/07/18 05:53:15;;;;;;;3.00;1.60;;;16.50;99.90;;;;;;5074289;28;20040;-73
2022/07/18 05:55:41;;;;;;;5.03;1.70;;;16.60;99.90;;;;;;5074180;28;20059;-73
2022/07/18 05:58:07;;;;;;;3.42;1.60;;;16.60;99.90;;;;;;5075201;28;20039;-73
2022/07/18 06:00:33;;;;;;;2.97;1.70;;;16.70;99.90;;;;;;5075337;28;20038;-73
2022/07/18 06:03:00;;;;;;;3.72;1.67;;;16.80;99.90;;;;;;5075185;28;20450;-73
2022/07/18 06:05:26;;;;;;;3.25;1.70;;;16.90;99.90;;;;;;5075298;28;20044;-73
2022/07/18 06:07:54;;;;;;;2.58;1.33;;;17.10;99.90;;;;;;5075749;28;20399;-73
2022/07/18 06:10:21;;;;;;;3.58;1.52;;;17.20;99.90;;;;;;5073809;28;20040;-73
2022/07/18 06:12:46;;;;;;;2.72;1.40;;;17.40;99.90;;;;;;5075535;28;20464;-68
2022/07/18 06:15:13;;;;;;;2.50;1.70;;;17.50;99.90;;;;;;5075470;28;20040;-68
2022/07/18 06:17:38;;;;;;;3.17;1.52;;;17.60;99.90;;;;;;5074809;28;20032;-68
2022/07/18 06:20:07;;;;;;;3.47;1.50;;;17.70;99.90;;;;;;5074806;28;20066;-68
2022/07/18 06:22:34;;;;;;;3.58;1.58;;;17.70;99.90;;;;;;5073625;28;20092;-68
2022/07/18 06:25:00;;;;;;;3.63;1.50;;;17.80;99.90;;;;;;5074900;28;20115;-67
2022/07/18 06:27:25;;;;;;;2.58;1.50;;;17.90;99.90;;;;;;5074619;28;20473;-68
2022/07/18 06:29:51;;;;;;;2.95;1.58;;;18.00;99.90;;;;;;5074662;28;20040;-68
2022/07/18 06:32:17;;;;;;;3.55;1.40;;;18.00;99.90;;;;;;5074583;28;20055;-68
2022/07/18 06:34:42;;;;;;;2.97;1.35;;;18.10;99.90;;;;;;5074313;28;20502;-68
2022/07/18 06:37:08;;;;;;;4.00;1.40;;;18.20;99.90;;;;;;5074518;28;20098;-67
2022/07/18 06:39:34;;;;;;;3.20;1.40;;;18.30;99.90;;;;;;5074335;28;20405;-67
2022/07/18 06:42:00;;;;;;;3.03;1.30;;;18.30;99.90;;;;;;5074294;28;20059;-67
2022/07/18 06:44:25;;;;;;;4.05;1.65;;;18.40;99.90;;;;;;5073539;28;20037;-67
2022/07/18 06:46:52;;;;;;;4.55;2.00;;;18.50;99.90;;;;;;5074217;28;20440;-68
2022/07/18 06:49:18;;;;;;;2.67;1.65;;;18.60;99.90;;;;;;5075231;28;20051;-67
2022/07/18 06:51:44;;;;;;;3.10;1.45;;;18.60;99.90;;;;;;5073354;28;20048;-68
2022/07/18 06:54:10;;;;;;;3.45;1.58;;;18.70;99.90;;;;;;5073978;28;20059;-68
2022/07/18 06:56:35;;;;;;;2.95;1.65;;;18.80;99.90;;;;;;5072728;28;20072;-68
2022/07/18 06:59:01;;;;;;;3.03;1.42;;;18.90;99.90;;;;;;5073943;28;20051;-68
2022/07/18 07:01:27;;;;;;;2.30;1.40;;;18.90;99.90;;;;;;5073932;28;20436;-68
2022/07/18 07:03:53;;;;;;;1.95;1.17;;;19.00;99.90;;;;;;5073905;28;20056;-68
2022/07/18 07:06:18;;;;;;;2.70;1.80;;;19.10;99.90;;;;;;5073900;28;20431;-68
2022/07/18 07:08:44;;;;;;;2.60;1.33;;;19.10;99.90;;;;;;5073750;28;20444;-67
2022/07/18 07:11:10;;;;;;;3.97;1.55;;;19.30;99.90;;;;;;5073076;28;20052;-67
2022/07/18 07:13:36;;;;;;;2.88;1.42;;;19.40;99.90;;;;;;5073665;28;20105;-68
2022/07/18 07:16:02;;;;;;;2.88;1.40;;;19.60;99.90;;;;;;5074096;28;20381;-68
2022/07/18 07:18:28;;;;;;;3.05;1.20;;;19.70;99.90;;;;;;5074273;28;20408;-67
2022/07/18 07:20:53;;;;;;;3.08;1.30;;;19.90;99.90;;;;;;5073554;28;20532;-68
2022/07/18 07:23:19;;;;;;;2.63;1.20;;;20.00;99.90;;;;;;5072542;28;20120;-67
2022/07/18 07:25:45;;;;;;;2.75;1.48;;;20.20;99.90;;;;;;5073008;28;20052;-67
2022/07/18 07:28:10;;;;;;;2.78;1.30;;;20.40;99.90;;;;;;5073426;28;20403;-68
2022/07/18 07:30:36;;;;;;;3.10;1.30;;;20.60;99.90;;;;;;5073762;28;20102;-68
2022/07/18 07:33:03;;;;;;;2.83;1.25;;;20.70;99.90;;;;;;5073172;28;20439;-66
2022/07/18 07:35:28;;;;;;;2.35;1.15;;;20.90;99.90;;;;;;5073060;28;20094;-66
2022/07/18 07:37:57;;;;;;;3.03;1.00;;;21.00;99.90;;;;;;5072915;28;20040;-67
2022/07/18 07:40:24;;;;;;;3.65;1.17;;;21.10;99.90;;;;;;5071860;28;20090;-67
2022/07/18 07:42:51;;;;;;;2.92;1.30;;;21.30;99.90;;;;;;5073685;28;20052;-67
2022/07/18 07:45:18;;;;;;;2.03;0.98;;;21.40;99.90;;;;;;5073103;28;20066;-67
2022/07/18 07:47:44;;;;;;;2.10;1.15;;;21.60;99.90;;;;;;5073129;28;20045;-67
2022/07/18 07:50:11;;;;;;;3.33;1.08;;;21.70;99.90;;;;;;5073124;28;20055;-66
2022/07/18 07:52:37;;;;;;;4.38;1.15;;;21.80;99.90;;;;;;5071768;28;20055;-67
2022/07/18 07:55:04;;;;;;;3.28;1.10;;;22.00;99.90;;;;;;5072667;28;20047;-67
2022/07/18 07:57:30;;;;;;;2.55;1.30;;;22.10;99.90;;;;;;5072635;28;20127;-67
2022/07/18 07:59:56;;;;;;;3.58;1.45;;;22.30;99.90;;;;;;5073287;28;20123;-67
2022/07/18 08:02:22;;;;;;;2.60;1.20;;;22.40;99.90;;;;;;5071910;28;20052;-67
2022/07/18 08:04:48;;;;;;;2.85;1.20;;;22.50;99.90;;;;;;5071985;28;20114;-67
2022/07/18 08:07:13;;;;;;;2.17;1.20;;;22.60;99.90;;;;;;5073657;28;20041;-67
2022/07/18 08:09:39;;;;;;;2.83;1.15;;;22.80;99.90;;;;;;5071914;28;20514;-67
2022/07/18 08:12:05;;;;;;;1.90;0.85;;;22.90;99.90;;;;;;5072794;28;20059;-68
2022/07/18 08:14:33;;;;;;;3.22;1.15;;;23.10;99.90;;;;;;5072716;28;20059;-68
2022/07/18 08:16:59;;;;;;;2.42;1.00;;;23.30;99.90;;;;;;5072108;28;20056;-67
2022/07/18 08:19:24;;;;;;;2.65;0.90;;;23.30;99.90;;;;;;5072907;28;20728;-67
2022/07/18 08:21:50;;;;;;;2.05;0.90;;;23.30;99.90;;;;;;5073389;28;20041;-67
2022/07/18 08:24:16;;;;;;;2.13;1.10;;;23.30;99.90;;;;;;5076681;28;20045;-67
2022/07/18 08:26:41;;;;;;;2.20;1.15;;;23.40;99.90;;;;;;5076752;28;20041;-68
2022/07/18 08:29:07;;;;;;;2.15;0.85;;;23.50;99.90;;;;;;5077142;28;20094;-67
2022/07/18 08:31:33;;;;;;;1.58;0.80;;;23.60;99.90;;;;;;5076711;28;20390;-67
2022/07/18 08:33:59;;;;;;;2.60;1.00;;;23.80;99.90;;;;;;5075212;28;20539;-67
2022/07/18 08:36:24;;;;;;;1.90;1.00;;;23.80;99.90;;;;;;5076699;28;20056;-67
2022/07/18 08:38:50;;;;;;;2.85;1.42;;;23.80;99.90;;;;;;5076664;28;20460;-67
2022/07/18 08:41:17;;;;;;;3.25;1.17;;;23.80;99.90;;;;;;5076545;28;20102;-67
2022/07/18 08:43:45;;;;;;;2.40;1.10;;;23.90;99.90;;;;;;5076433;28;20040;-68
2022/07/18 08:46:12;;;;;;;2.00;1.10;;;23.80;99.90;;;;;;5076382;28;20045;-68
2022/07/18 08:48:39;;;;;;;2.92;0.90;;;23.90;99.90;;;;;;5076534;28;20060;-72
2022/07/18 08:51:06;;;;;;;1.88;1.00;;;23.90;99.90;;;;;;5076450;28;20113;-68
2022/07/18 08:53:33;;;;;;;3.72;1.15;;;24.00;99.90;;;;;;5076274;28;20049;-68
2022/07/18 08:55:59;;;;;;;3.55;1.40;;;24.10;99.90;;;;;;5076233;28;20048;-68
2022/07/18 08:58:25;;;;;;;2.85;0.90;;;24.20;99.90;;;;;;5076054;28;20047;-67
2022/07/18 09:00:51;;;;;;;4.22;1.20;;;24.30;99.90;;;;;;5076670;28;20044;-67
2022/07/18 09:03:17;;;;;;;2.78;1.27;;;24.40;99.90;;;;;;5075960;28;20417;-67
2022/07/18 09:05:43;;;;;;;2.55;1.10;;;24.50;99.90;;;;;;5074589;28;20045;-67
2022/07/18 09:08:16;;;;;;;2.85;1.10;;;24.60;99.90;;;;;;5076231;28;20098;-68
2022/07/18 09:11:02;;;;;;;3.55;1.00;;;24.70;99.90;;;;;;5075923;28;20053;-67
2022/07/18 09:13:33;;;;;;;2.47;1.00;;;24.70;99.90;;;;;;5076601;28;20052;-67
2022/07/18 09:16:05;;;;;;;3.10;1.15;;;24.70;99.90;;;;;;5075780;28;20044;-68
2022/07/18 09:18:36;;;;;;;2.30;1.00;;;24.80;99.90;;;;;;5075780;28;20110;-67
2022/07/18 09:21:03;;;;;;;3.03;1.10;;;24.90;99.90;;;;;;5075617;28;20059;-67
2022/07/18 09:23:33;;;;;;;2.83;1.00;;;24.90;99.90;;;;;;5076439;28;20101;-68
2022/07/18 09:25:59;;;;;;;3.60;1.20;;;25.00;99.90;;;;;;5075564;28;20049;-68
2022/07/18 09:28:44;;;;;;;3.92;1.05;;;25.00;99.90;;;;;;5074870;28;20098;-68
2022/07/18 09:31:21;;;;;;;4.28;0.95;;;24.90;99.90;;;;;;5076336;28;20047;-68
2022/07/18 09:33:58;;;;;;;2.03;0.90;;;24.90;99.90;;;;;;5075293;28;20131;-67
2022/07/18 09:36:25;;;;;;;1.90;0.88;;;24.80;99.90;;;;;;5075325;28;20051;-67
2022/07/18 09:38:51;;;;;;;1.90;0.88;;;24.80;99.20;;;;;;5075254;28;20051;-66
2022/07/18 09:41:26;;;;;;;3.38;1.10;;;24.90;97.70;;;;;;5075186;28;20052;-67
2022/07/18 09:43:52;;;;;;;3.60;0.70;;;25.00;96.80;;;;;;5075099;28;20055;-67
2022/07/18 09:46:17;;;;;;;2.83;1.25;;;25.10;96.80;;;;;;5075588;28;20048;-66
2022/07/18 09:48:43;;;;;;;3.67;1.10;;;25.20;96.60;;;;;;5074875;28;20036;-67
2022/07/18 09:51:10;;;;;;;1.67;0.85;;;25.20;96.20;;;;;;5075045;28;20055;-67
2022/07/18 09:53:43;;;;;;;2.50;1.02;;;25.20;95.90;;;;;;5075174;28;20119;-66
2022/07/18 09:56:14;;;;;;;1.80;0.82;;;25.30;95.50;;;;;;5074124;28;20554;-68
2022/07/18 09:58:59;;;;;;;2.78;1.08;;;25.40;95.50;;;;;;5074809;28;20517;-68
2022/07/18 10:01:25;;;;;;;2.22;1.20;;;25.50;95.30;;;;;;5073501;28;20060;-68
2022/07/18 10:03:51;;;;;;;1.85;0.90;;;25.60;95.40;;;;;;5075113;28;20109;-67
2022/07/18 10:06:22;;;;;;;3.70;1.10;;;25.70;94.90;;;;;;5075257;28;20133;-67
2022/07/18 10:08:48;;;;;;;2.78;1.20;;;25.70;94.70;;;;;;5074941;28;20044;-67
2022/07/18 10:11:14;;;;;;;3.10;1.10;;;25.70;94.70;;;;;;5075279;28;20048;-67
2022/07/18 10:13:40;;;;;;;2.72;1.15;;;25.80;94.20;;;;;;5075431;28;20385;-67
2022/07/18 10:16:06;;;;;;;3.33;1.27;;;25.80;93.80;;;;;;5073304;28;20136;-66
2022/07/18 10:18:36;;;;;;;2.95;1.25;;;25.80;93.50;;;;;;5074313;28;20094;-68
2022/07/18 10:21:10;;;;;;;4.30;1.35;;;25.80;93.60;;;;;;5074567;28;20131;-68
2022/07/18 10:23:47;;;;;;;3.20;1.30;;;25.80;93.40;;;;;;5075328;28;20048;-67
2022/07/18 10:26:29;;;;;;;2.33;1.30;;;26.00;93.60;;;;;;5074439;28;20045;-68
2022/07/18 10:28:58;;;;;;;2.97;1.38;;;26.10;93.10;;;;;;5074420;28;20046;-67
2022/07/18 10:31:31;;;;;;;3.22;1.65;;;26.10;93.20;;;;;;5074422;28;20049;-68
2022/07/18 10:34:09;;;;;;;2.55;1.25;;;26.10;93.00;;;;;;5075085;28;20091;-67
2022/07/18 10:36:39;;;;;;;3.92;1.40;;;26.20;92.70;;;;;;5073572;28;20393;-67
2022/07/18 10:39:06;;;;;;;2.88;1.10;;;26.10;92.10;;;;;;5074190;28;20109;-67
2022/07/18 10:41:33;;;;;;;2.70;1.35;;;26.20;92.80;;;;;;5074162;28;20048;-68
2022/07/18 10:43:59;;;;;;;3.25;1.50;;;26.20;92.70;;;;;;5073795;28;20493;-67
2022/07/18 10:46:45;;;;;;;2.95;1.20;;;26.30;92.80;;;;;;5072905;28;20059;-67
2022/07/18 10:49:10;;;;;;;;;;;26.30;92.40;;;;;;5074724;28;20059;-67
2022/07/18 10:51:36;;;;;;;2.85;1.35;;;26.30;92.60;;;;;;5073356;28;19920;-68
2022/07/18 10:54:05;;;;;;;5.70;1.77;;;26.30;92.40;;;;;;5073975;28;20045;-70
2022/07/18 10:56:37;;;;;;;3.85;1.30;;;26.30;91.80;;;;;;5073849;28;20127;-67
2022/07/18 10:59:16;;;;;;;3.47;1.33;;;26.40;91.10;;;;;;5073906;28;20044;-67
2022/07/18 11:01:50;;;;;;;3.40;1.17;;;26.50;91.40;;;;;;5073718;28;20466;-67
2022/07/18 11:04:32;;;;;;;3.22;1.40;;;26.60;91.60;;;;;;5073662;28;20141;-67
2022/07/18 11:07:06;;;;;;;2.65;1.35;;;26.70;90.50;;;;;;5073694;28;20044;-67
2022/07/18 11:09:40;;;;;;;2.67;1.40;;;26.70;90.60;;;;;;5073724;28;20059;-67
2022/07/18 11:12:22;;;;;;;5.23;1.30;;;26.70;90.60;;;;;;5073646;28;20136;-67
2022/07/18 11:15:03;;;;;;;2.92;1.38;;;26.80;90.20;;;;;;5073621;28;20048;-67
2022/07/18 11:18:00;;;;;;;2.72;1.25;;;26.90;89.60;;;;;;5073560;28;20037;-67
2022/07/18 11:20:42;;;;;;;3.35;1.20;;;27.00;88.40;;;;;;5072516;28;20084;-67
2022/07/18 11:23:15;;;;;;;3.55;1.63;;;27.10;89.00;;;;;;5072713;28;20045;-69
2022/07/18 11:25:41;;;;;;;4.43;1.52;;;27.20;86.40;;;;;;5074107;28;20098;-67
2022/07/18 11:28:08;;;;;;;2.97;1.50;;;27.20;85.50;;;;;;5072340;28;20048;-67
2022/07/18 11:30:34;;;;;;;3.42;1.60;;;27.10;84.90;;;;;;5073483;28;20040;-67
2022/07/18 11:33:00;;;;;;;3.63;1.40;;;27.10;85.40;;;;;;5073412;28;20075;-67
2022/07/18 11:35:26;;;;;;;2.95;1.42;;;27.10;84.30;;;;;;5072104;28;20048;-67
2022/07/18 11:37:53;;;;;;;3.65;1.60;;;27.20;83.50;;;;;;5073391;28;20052;-67
2022/07/18 11:40:19;;;;;;;2.75;1.40;;;27.20;83.30;;;;;;5073316;28;20052;-66
2022/07/18 11:42:46;;;;;;;2.70;1.33;;;27.30;83.60;;;;;;5072273;28;20132;-67
2022/07/18 11:45:14;;;;;;;3.25;1.40;;;27.30;83.40;;;;;;5073157;28;20052;-70
2022/07/18 11:47:46;;;;;;;5.30;1.60;;;27.40;81.70;;;;;;5073087;28;20189;-67
2022/07/18 11:50:12;;;;;;;3.15;1.40;;;27.40;82.10;;;;;;5072958;28;20056;-69
2022/07/18 11:52:37;;;;;;;4.07;1.58;;;27.50;81.50;;;;;;5073012;28;20070;-67
2022/07/18 11:55:04;;;;;;;4.07;1.80;;;27.50;80.80;;;;;;5073490;28;20048;-70
2022/07/18 11:57:31;;;;;;;3.75;1.90;;;27.60;79.30;;;;;;5072609;28;20114;-68
2022/07/18 11:59:58;;;;;;;3.10;1.63;;;27.60;77.90;;;;;;5073112;28;20048;-68
2022/07/18 12:03:03;;;;;;;3.33;1.77;;;27.60;77.40;;;;;;5074000;28;20052;-67
2022/07/18 12:05:34;;;;;;;2.88;1.60;;;27.60;77.70;;;;;;5072958;28;20048;-69
2022/07/18 12:08:00;;;;;;;3.25;1.50;;;27.70;77.40;;;;;;5073100;28;20036;-69
2022/07/18 12:10:26;;;;;;;5.40;1.70;;;27.70;76.90;;;;;;5071423;28;20245;-70
2022/07/18 12:12:53;;;;;;;3.65;2.00;;;27.80;76.20;;;;;;5072943;28;20052;-68
2022/07/18 12:15:19;;;;;;;3.28;1.90;;;27.80;75.10;;;;;;5072894;28;20064;-69
2022/07/18 12:17:47;;;;;;;3.95;1.90;;;27.80;75.60;;;;;;5072816;28;20045;-67
2022/07/18 12:20:16;;;;;;;2.60;1.70;;;27.70;75.90;;;;;;5073571;28;20041;-70
2022/07/18 12:23:10;;;;;;;3.75;1.67;;;27.70;76.30;;;;;;5072800;28;20044;-68
2022/07/18 12:25:40;;;;;;;3.20;1.50;;;27.60;76.50;;;;;;5073007;28;20114;-68
2022/07/18 12:28:18;;;;;;;2.63;1.60;;;27.60;76.20;;;;;;5055853;28;20050;-68
2022/07/18 12:30:44;;;;;;;4.20;2.10;;;27.50;76.40;;;;;;5073596;28;20420;-68
2022/07/18 12:33:10;;;;;;;3.35;1.63;;;27.40;76.60;;;;;;5072703;28;20178;-69
2022/07/18 12:35:38;;;;;;;3.33;2.00;;;27.40;76.60;;;;;;5072720;28;20508;-68
2022/07/18 12:38:06;;;;;;;4.13;1.60;;;27.40;77.00;;;;;;5072579;28;20047;-68
2022/07/18 12:40:52;;;;;;;4.47;2.70;;;27.50;77.60;;;;;;5072549;28;20455;-68
2022/07/18 12:43:38;;;;;;;2.88;1.52;;;27.60;77.70;;;;;;5072716;28;20076;-69
2022/07/18 12:46:07;;;;;;;3.95;1.77;;;27.70;77.50;;;;;;5072738;28;20048;-68
2022/07/18 12:48:35;;;;;;;3.53;1.60;;;27.60;77.00;;;;;;5072824;28;20123;-66
2022/07/18 12:51:09;;;;;;;3.30;1.60;;;27.60;77.10;;;;;;5072769;28;20075;-68
2022/07/18 12:53:37;;;;;;;3.10;1.63;;;27.60;77.10;;;;;;5072376;28;20056;-69